Time;durP1;ratioP1;P1;durP2;ratioP2;P2;SDS_P1;SDS_P2;PMS_P1;PMS_P2;Temp;Humidity;BMP_temperature;BMP_pressure;BME280_temperature;BME280_humidity;BME280_pressure;Samples;Min_cycle;Max_cycle;Signal;HPM_P1;HPM_P2
2023/03/11 00:00:08;;;;;;;9.48;8.88;;;;;;;;;;4995972;28;20097;-50
2023/03/11 00:02:33;;;;;;;9.98;9.38;;;;;;;;;;4990397;28;20421;-49
2023/03/11 00:04:59;;;;;;;9.50;8.90;;;;;;;;;;4991738;28;20044;-50
2023/03/11 00:07:24;;;;;;;10.30;9.60;;;;;;;;;;4989357;28;20041;-49
2023/03/11 00:09:49;;;;;;;9.82;9.23;;;;;;;;;;4992996;28;20092;-50
2023/03/11 00:12:14;;;;;;;9.90;9.30;;;;;;;;;;4994241;28;20065;-52
2023/03/11 00:14:40;;;;;;;9.40;8.80;;;;;;;;;;4994945;28;20054;-53
2023/03/11 00:17:05;;;;;;;10.07;9.48;;;;;;;;;;4992384;28;20038;-50
2023/03/11 00:19:30;;;;;;;9.55;8.95;;;;;;;;;;4996365;28;20180;-49
2023/03/11 00:21:56;;;;;;;10.02;9.43;;;;;;;;;;4995108;28;20038;-52
2023/03/11 00:24:22;;;;;;;9.63;9.02;;;;;;;;;;4995545;28;20030;-50
2023/03/11 00:26:47;;;;;;;9.20;8.52;;;;;;;;;;4990624;28;20044;-48
2023/03/11 00:29:12;;;;;;;9.40;8.80;;;;;;;;;;4996796;28;20045;-50
2023/03/11 00:31:38;;;;;;;8.40;7.90;;;;;;;;;;4993803;28;20103;-49
2023/03/11 00:34:03;;;;;;;8.70;8.18;;;;;;;;;;4997348;28;20099;-52
2023/03/11 00:36:34;;;;;;;8.05;7.55;;;;;;;;;;4993653;28;20022;-53
2023/03/11 00:39:05;;;;;;;9.20;8.60;;;;;;;;;;4992466;28;20041;-49
2023/03/11 00:41:31;;;;;;;8.97;8.20;;;;;;;;;;4994551;28;20523;-49
2023/03/11 00:43:56;;;;;;;9.13;8.52;;;;;;;;;;4993770;28;20077;-50
2023/03/11 00:46:21;;;;;;;9.45;8.85;;;;;;;;;;4994024;28;20037;-50
2023/03/11 00:48:49;;;;;;;8.88;8.27;;;;;;;;;;4990758;28;20066;-50
2023/03/11 00:51:15;;;;;;;8.30;7.80;;;;;;;;;;4994567;28;20061;-52
2023/03/11 00:53:41;;;;;;;8.20;7.70;;;;;;;;;;4999557;28;20483;-51
2023/03/11 00:56:11;;;;;;;8.15;7.65;;;;;;;;;;4995825;28;20044;-53
2023/03/11 00:58:37;;;;;;;8.98;8.38;;;;;;;;;;4994131;28;20368;-53
2023/03/11 01:01:07;;;;;;;9.00;8.40;;;;;;;;;;4995713;28;20041;-52
2023/03/11 01:03:34;;;;;;;8.40;7.90;;;;;;;;;;4996257;28;20042;-51
2023/03/11 01:05:59;;;;;;;9.07;8.48;;;;;;;;;;5010819;28;20500;-51
2023/03/11 01:08:25;;;;;;;8.13;7.63;;;;;;;;;;4996421;28;20133;-51
2023/03/11 01:10:51;;;;;;;8.20;7.70;;;;;;;;;;4994758;28;20033;-51
2023/03/11 01:13:17;;;;;;;8.40;7.90;;;;;;;;;;4994385;28;20105;-52
2023/03/11 01:15:42;;;;;;;8.55;8.02;;;;;;;;;;4994224;28;20086;-52
2023/03/11 01:18:07;;;;;;;8.57;8.07;;;;;;;;;;4995622;28;20478;-49
2023/03/11 01:20:34;;;;;;;9.23;8.63;;;;;;;;;;4994274;28;20033;-53
2023/03/11 01:23:00;;;;;;;9.02;8.43;;;;;;;;;;4994502;28;20516;-49
2023/03/11 01:25:25;;;;;;;9.05;8.45;;;;;;;;;;4994485;28;20038;-48
2023/03/11 01:27:50;;;;;;;9.30;8.70;;;;;;;;;;4992446;28;20129;-49
2023/03/11 01:30:19;;;;;;;9.38;8.77;;;;;;;;;;4995461;28;20030;-50
2023/03/11 01:32:45;;;;;;;9.10;8.50;;;;;;;;;;4994827;28;20392;-51
2023/03/11 01:35:12;;;;;;;9.30;8.70;;;;;;;;;;4992850;28;20034;-51
2023/03/11 01:37:38;;;;;;;8.35;7.85;;;;;;;;;;4993932;28;20491;-49
2023/03/11 01:40:05;;;;;;;9.45;8.68;;;;;;;;;;4995222;28;20046;-51
2023/03/11 01:42:30;;;;;;;9.07;8.48;;;;;;;;;;4993524;28;20037;-48
2023/03/11 01:44:55;;;;;;;8.70;8.20;;;;;;;;;;4993107;28;20705;-48
2023/03/11 01:47:34;;;;;;;9.20;8.60;;;;;;;;;;4990757;28;20027;-49
2023/03/11 01:50:00;;;;;;;9.60;9.00;;;;;;;;;;4993506;28;20026;-53
2023/03/11 01:52:27;;;;;;;9.05;8.45;;;;;;;;;;5000694;28;20308;-49
2023/03/11 01:54:52;;;;;;;8.48;7.97;;;;;;;;;;4997182;28;20048;-51
2023/03/11 01:57:19;;;;;;;9.73;9.13;;;;;;;;;;4992734;28;20030;-50
2023/03/11 01:59:49;;;;;;;9.60;9.00;;;;;;;;;;4994827;28;20123;-53
2023/03/11 02:02:22;;;;;;;10.40;9.70;;;;;;;;;;5013939;28;20026;-51
2023/03/11 02:04:49;;;;;;;9.40;8.80;;;;;;;;;;4994021;28;20064;-49
2023/03/11 02:07:15;;;;;;;9.35;8.75;;;;;;;;;;4993908;28;20033;-50
2023/03/11 02:09:41;;;;;;;9.93;9.32;;;;;;;;;;4995562;28;20030;-49
2023/03/11 02:12:09;;;;;;;11.00;9.80;;;;;;;;;;4993255;28;20041;-52
2023/03/11 02:14:35;;;;;;;10.43;9.73;;;;;;;;;;4994637;28;20034;-53
2023/03/11 02:17:00;;;;;;;9.98;9.35;;;;;;;;;;4991978;28;20026;-52
2023/03/11 02:19:53;;;;;;;9.80;9.20;;;;;;;;;;4999156;28;20094;-50
2023/03/11 02:22:19;;;;;;;9.23;8.63;;;;;;;;;;4998054;28;20061;-51
2023/03/11 02:25:02;;;;;;;9.40;8.80;;;;;;;;;;4994053;28;20042;-53
2023/03/11 02:27:30;;;;;;;9.50;8.90;;;;;;;;;;4990659;28;20126;-51
2023/03/11 02:29:58;;;;;;;9.60;9.00;;;;;;;;;;4991790;28;20096;-53
2023/03/11 02:32:24;;;;;;;9.82;9.23;;;;;;;;;;4992157;28;20044;-51
2023/03/11 02:34:49;;;;;;;10.38;9.77;;;;;;;;;;4998734;28;20372;-53
2023/03/11 02:37:16;;;;;;;9.55;8.95;;;;;;;;;;4995239;28;20117;-53
2023/03/11 02:39:46;;;;;;;9.70;9.10;;;;;;;;;;4996300;28;20177;-50
2023/03/11 02:42:17;;;;;;;9.60;9.00;;;;;;;;;;4996772;28;20022;-53
2023/03/11 02:44:45;;;;;;;9.50;8.90;;;;;;;;;;4994181;28;20486;-51
2023/03/11 02:47:11;;;;;;;9.15;8.55;;;;;;;;;;4993465;28;20074;-48
2023/03/11 02:49:37;;;;;;;9.88;9.27;;;;;;;;;;4992792;28;20065;-52
2023/03/11 02:52:03;;;;;;;10.88;10.18;;;;;;;;;;4995983;28;20387;-50
2023/03/11 02:54:29;;;;;;;9.20;8.60;;;;;;;;;;4992618;28;20033;-51
2023/03/11 02:56:54;;;;;;;10.07;9.45;;;;;;;;;;4991991;28;20117;-49
2023/03/11 02:59:19;;;;;;;9.10;8.50;;;;;;;;;;4991672;28;20188;-52
2023/03/11 03:01:45;;;;;;;8.95;8.35;;;;;;;;;;4991524;28;20470;-49
2023/03/11 03:04:10;;;;;;;8.90;8.30;;;;;;;;;;4989737;28;21029;-49
2023/03/11 03:06:35;;;;;;;10.02;9.32;;;;;;;;;;4993603;28;20423;-51
2023/03/11 03:09:01;;;;;;;9.38;8.77;;;;;;;;;;4994947;28;20502;-51
2023/03/11 03:11:26;;;;;;;9.88;9.18;;;;;;;;;;4996987;28;20045;-49
2023/03/11 03:13:52;;;;;;;9.73;9.05;;;;;;;;;;4991172;28;20600;-49
2023/03/11 03:16:17;;;;;;;9.25;8.65;;;;;;;;;;4996777;28;20041;-49
2023/03/11 03:18:42;;;;;;;9.40;8.80;;;;;;;;;;4988724;28;20030;-49
2023/03/11 03:21:08;;;;;;;10.00;9.40;;;;;;;;;;4992070;28;20041;-53
2023/03/11 03:23:36;;;;;;;10.30;9.60;;;;;;;;;;4995335;28;20030;-48
2023/03/11 03:26:02;;;;;;;11.30;10.60;;;;;;;;;;4995514;28;20034;-50
2023/03/11 03:28:28;;;;;;;10.48;9.82;;;;;;;;;;4993998;28;20089;-49
2023/03/11 03:30:53;;;;;;;9.82;9.23;;;;;;;;;;4991979;28;20026;-51
2023/03/11 03:33:18;;;;;;;9.77;9.18;;;;;;;;;;4993522;28;20559;-50
2023/03/11 03:35:44;;;;;;;10.40;9.80;;;;;;;;;;4996233;28;20093;-51
2023/03/11 03:38:10;;;;;;;10.68;9.98;;;;;;;;;;4993764;28;20033;-51
2023/03/11 03:40:36;;;;;;;9.75;9.15;;;;;;;;;;4995021;28;20034;-51
2023/03/11 03:43:01;;;;;;;10.70;10.00;;;;;;;;;;4993309;28;20056;-49
2023/03/11 03:45:27;;;;;;;10.57;9.98;;;;;;;;;;4995065;28;20046;-51
2023/03/11 03:47:52;;;;;;;10.88;10.18;;;;;;;;;;4994184;28;20034;-48
2023/03/11 03:50:18;;;;;;;10.10;9.50;;;;;;;;;;4999931;28;20030;-52
2023/03/11 03:52:43;;;;;;;10.55;9.95;;;;;;;;;;4997223;28;20034;-49
2023/03/11 03:55:09;;;;;;;10.30;9.70;;;;;;;;;;4995617;28;20089;-49
2023/03/11 03:57:34;;;;;;;10.10;9.50;;;;;;;;;;4992404;28;20031;-53
2023/03/11 04:00:00;;;;;;;10.40;9.80;;;;;;;;;;4995478;28;20048;-53
2023/03/11 04:02:25;;;;;;;10.50;9.90;;;;;;;;;;4997894;28;20109;-51
2023/03/11 04:04:51;;;;;;;10.10;9.50;;;;;;;;;;4997718;28;20038;-50
2023/03/11 04:07:16;;;;;;;11.82;10.55;;;;;;;;;;4996912;28;20030;-51
2023/03/11 04:09:42;;;;;;;10.45;9.85;;;;;;;;;;4997755;28;20611;-51
2023/03/11 04:12:14;;;;;;;11.20;10.50;;;;;;;;;;4998235;28;20048;-51
2023/03/11 04:14:39;;;;;;;;;;;;;;;;;;4997115;28;20030;-49
2023/03/11 04:17:05;;;;;;;10.38;9.77;;;;;;;;;;4997231;28;20537;-50
2023/03/11 04:19:31;;;;;;;10.10;9.50;;;;;;;;;;5000081;28;20040;-52
2023/03/11 04:21:56;;;;;;;10.38;9.77;;;;;;;;;;4993054;28;20038;-50
2023/03/11 04:24:21;;;;;;;10.80;10.10;;;;;;;;;;5000517;28;20030;-49
2023/03/11 04:26:47;;;;;;;9.90;9.30;;;;;;;;;;4996383;28;20698;-49
2023/03/11 04:29:12;;;;;;;10.35;9.75;;;;;;;;;;4994849;28;20034;-50
2023/03/11 04:31:38;;;;;;;10.02;9.43;;;;;;;;;;4998082;28;20049;-51
2023/03/11 04:34:03;;;;;;;10.80;10.10;;;;;;;;;;4997420;28;20066;-51
2023/03/11 04:36:28;;;;;;;10.23;9.63;;;;;;;;;;4998242;28;20526;-52
2023/03/11 04:38:55;;;;;;;10.98;10.27;;;;;;;;;;4995817;28;20050;-52
2023/03/11 04:41:20;;;;;;;9.82;9.23;;;;;;;;;;4998259;28;20110;-50
2023/03/11 04:43:46;;;;;;;10.50;9.88;;;;;;;;;;4995408;28;20317;-49
2023/03/11 04:46:11;;;;;;;11.07;10.25;;;;;;;;;;4996214;28;20131;-51
2023/03/11 04:48:37;;;;;;;10.07;9.38;;;;;;;;;;5009810;28;20034;-53
2023/03/11 04:51:02;;;;;;;11.63;10.93;;;;;;;;;;4997743;28;20040;-51
2023/03/11 04:53:27;;;;;;;10.98;10.27;;;;;;;;;;4996748;28;20584;-52
2023/03/11 04:55:53;;;;;;;10.23;9.52;;;;;;;;;;4997025;28;20034;-51
2023/03/11 04:58:19;;;;;;;9.43;8.82;;;;;;;;;;4993465;28;20034;-50
2023/03/11 05:00:44;;;;;;;9.55;8.95;;;;;;;;;;4993243;28;20061;-52
2023/03/11 05:03:10;;;;;;;9.73;9.13;;;;;;;;;;4993252;28;20147;-49
2023/03/11 05:05:35;;;;;;;9.30;8.70;;;;;;;;;;4995669;28;20049;-49
2023/03/11 05:08:01;;;;;;;9.40;8.80;;;;;;;;;;4996170;28;20034;-53
2023/03/11 05:10:27;;;;;;;9.45;8.85;;;;;;;;;;4997070;28;20040;-52
2023/03/11 05:12:52;;;;;;;9.60;9.00;;;;;;;;;;4997895;28;20038;-49
2023/03/11 05:15:18;;;;;;;9.25;8.65;;;;;;;;;;4997504;28;20029;-50
2023/03/11 05:17:43;;;;;;;9.32;8.73;;;;;;;;;;4994517;28;20045;-50
2023/03/11 05:20:10;;;;;;;9.07;8.48;;;;;;;;;;4996316;28;20467;-51
2023/03/11 05:22:36;;;;;;;9.10;8.50;;;;;;;;;;4996055;28;20109;-48
2023/03/11 05:25:01;;;;;;;9.52;8.93;;;;;;;;;;4997020;28;20034;-53
2023/03/11 05:27:26;;;;;;;10.05;9.45;;;;;;;;;;5000682;28;20034;-50
2023/03/11 05:29:52;;;;;;;8.95;8.35;;;;;;;;;;4993768;28;20676;-49
2023/03/11 05:32:18;;;;;;;9.98;9.18;;;;;;;;;;4990381;28;20132;-54
2023/03/11 05:34:44;;;;;;;10.57;9.88;;;;;;;;;;4991925;28;20081;-52
2023/03/11 05:37:10;;;;;;;9.10;8.50;;;;;;;;;;4993235;28;20626;-51
2023/03/11 05:39:36;;;;;;;8.90;8.30;;;;;;;;;;4992372;28;20629;-51
2023/03/11 05:42:03;;;;;;;9.13;8.52;;;;;;;;;;4993426;28;20069;-50
2023/03/11 05:44:29;;;;;;;8.68;8.10;;;;;;;;;;4995161;28;20189;-52
2023/03/11 05:46:54;;;;;;;9.93;9.32;;;;;;;;;;4997291;28;20555;-53
2023/03/11 05:49:20;;;;;;;9.15;8.55;;;;;;;;;;4995421;28;20037;-52
2023/03/11 05:51:46;;;;;;;9.10;8.50;;;;;;;;;;4997082;28;20061;-53
2023/03/11 05:54:13;;;;;;;9.15;8.55;;;;;;;;;;4996235;28;20371;-53
2023/03/11 05:56:40;;;;;;;9.73;9.13;;;;;;;;;;4995504;28;20507;-53
2023/03/11 05:59:06;;;;;;;10.25;9.65;;;;;;;;;;4994088;28;20049;-51
2023/03/11 06:01:31;;;;;;;9.45;8.85;;;;;;;;;;4994626;28;20038;-52
2023/03/11 06:03:56;;;;;;;9.70;9.10;;;;;;;;;;4994995;28;20049;-52
2023/03/11 06:06:22;;;;;;;9.60;9.00;;;;;;;;;;4997799;28;20053;-53
2023/03/11 06:08:49;;;;;;;9.65;9.05;;;;;;;;;;4993977;28;20030;-53
2023/03/11 06:11:14;;;;;;;10.93;10.13;;;;;;;;;;4995848;28;20038;-52
2023/03/11 06:13:40;;;;;;;9.60;9.00;;;;;;;;;;4993673;28;20405;-49
2023/03/11 06:16:06;;;;;;;9.75;9.15;;;;;;;;;;4992979;28;20042;-49
2023/03/11 06:18:31;;;;;;;9.55;8.95;;;;;;;;;;4992068;28;20096;-47
2023/03/11 06:20:58;;;;;;;9.80;9.20;;;;;;;;;;4995215;28;20042;-51
2023/03/11 06:23:24;;;;;;;9.32;8.73;;;;;;;;;;4992804;28;20491;-50
2023/03/11 06:26:03;;;;;;;10.73;10.02;;;;;;;;;;4990421;28;20588;-50
2023/03/11 06:28:29;;;;;;;10.23;9.60;;;;;;;;;;4991508;28;20034;-52
2023/03/11 06:30:57;;;;;;;9.90;9.30;;;;;;;;;;4991492;28;20049;-49
2023/03/11 06:33:23;;;;;;;10.02;9.43;;;;;;;;;;4993754;28;20034;-52
2023/03/11 06:35:59;;;;;;;9.90;9.30;;;;;;;;;;4996747;28;20034;-51
2023/03/11 06:38:25;;;;;;;10.98;10.27;;;;;;;;;;4992522;28;20058;-51
2023/03/11 06:40:50;;;;;;;10.00;9.40;;;;;;;;;;4994486;28;20081;-51
2023/03/11 06:43:15;;;;;;;10.32;9.63;;;;;;;;;;4997412;28;20038;-53
2023/03/11 06:45:41;;;;;;;10.20;9.60;;;;;;;;;;4993258;28;20468;-50
2023/03/11 06:48:06;;;;;;;9.50;8.90;;;;;;;;;;4992108;28;20042;-52
2023/03/11 06:50:32;;;;;;;9.35;8.75;;;;;;;;;;4994776;28;20409;-50
2023/03/11 06:52:57;;;;;;;9.15;8.55;;;;;;;;;;4991141;28;20034;-49
2023/03/11 06:55:22;;;;;;;10.00;9.40;;;;;;;;;;4992935;28;20296;-52
2023/03/11 06:57:48;;;;;;;9.85;9.20;;;;;;;;;;4996767;28;20069;-50
2023/03/11 07:00:15;;;;;;;10.60;9.90;;;;;;;;;;4993462;28;20085;-52
2023/03/11 07:02:40;;;;;;;9.70;9.10;;;;;;;;;;4991562;28;20177;-53
2023/03/11 07:05:06;;;;;;;9.15;8.55;;;;;;;;;;4990941;28;20911;-50
2023/03/11 07:07:31;;;;;;;9.00;8.40;;;;;;;;;;4998450;28;20100;-50
2023/03/11 07:09:57;;;;;;;10.10;9.25;;;;;;;;;;4996150;28;20056;-50
2023/03/11 07:12:24;;;;;;;9.48;8.88;;;;;;;;;;4991087;28;20101;-52
2023/03/11 07:14:59;;;;;;;9.05;8.45;;;;;;;;;;4994260;28;20228;-51
2023/03/11 07:17:25;;;;;;;9.90;9.30;;;;;;;;;;4993019;28;20037;-51
2023/03/11 07:19:51;;;;;;;13.40;12.40;;;;;;;;;;4993330;28;20026;-49
2023/03/11 07:22:16;;;;;;;9.88;9.27;;;;;;;;;;4993854;28;20034;-53
2023/03/11 07:24:48;;;;;;;10.05;9.45;;;;;;;;;;4994660;28;20515;-53
2023/03/11 07:27:14;;;;;;;11.48;10.57;;;;;;;;;;4992292;28;20038;-52
2023/03/11 07:29:39;;;;;;;11.25;10.55;;;;;;;;;;4993608;28;20045;-49
2023/03/11 07:32:08;;;;;;;10.10;9.50;;;;;;;;;;4996265;28;20041;-51
2023/03/11 07:34:33;;;;;;;11.73;10.88;;;;;;;;;;4991655;28;20112;-51
2023/03/11 07:36:59;;;;;;;9.60;9.00;;;;;;;;;;4991477;28;20112;-48
2023/03/11 07:39:24;;;;;;;9.93;9.18;;;;;;;;;;4987503;28;20038;-52
2023/03/11 07:41:49;;;;;;;9.43;8.82;;;;;;;;;;4991921;28;20034;-53
2023/03/11 07:44:16;;;;;;;10.63;10.00;;;;;;;;;;4993016;28;20042;-53
2023/03/11 07:46:42;;;;;;;12.52;11.35;;;;;;;;;;4993861;28;20725;-51
2023/03/11 07:49:07;;;;;;;10.93;10.23;;;;;;;;;;4995757;28;20137;-53
2023/03/11 07:51:35;;;;;;;12.00;11.18;;;;;;;;;;4992566;28;20833;-52
2023/03/11 07:54:01;;;;;;;12.10;11.30;;;;;;;;;;4991440;28;20037;-53
2023/03/11 07:56:29;;;;;;;11.77;10.93;;;;;;;;;;4992694;28;20475;-49
2023/03/11 07:58:57;;;;;;;11.80;11.10;;;;;;;;;;4991497;28;20030;-51
2023/03/11 08:01:24;;;;;;;10.65;10.05;;;;;;;;;;4992413;28;20499;-51
2023/03/11 08:03:55;;;;;;;10.80;10.15;;;;;;;;;;4989713;28;20452;-50
2023/03/11 08:06:24;;;;;;;11.32;10.63;;;;;;;;;;4990320;28;20634;-50
2023/03/11 08:08:50;;;;;;;12.25;11.10;;;;;;;;;;5008156;28;20034;-50
2023/03/11 08:11:16;;;;;;;11.10;10.40;;;;;;;;;;4989256;28;20042;-51
2023/03/11 08:13:43;;;;;;;11.50;10.80;;;;;;;;;;4993034;28;20355;-49
2023/03/11 08:16:12;;;;;;;10.90;10.20;;;;;;;;;;5009693;28;20044;-52
2023/03/11 08:18:38;;;;;;;11.60;10.90;;;;;;;;;;4993972;28;20475;-47
2023/03/11 08:21:24;;;;;;;11.00;10.30;;;;;;;;;;4994521;28;20089;-51
2023/03/11 08:23:50;;;;;;;12.13;10.85;;;;;;;;;;4992469;28;20030;-52
2023/03/11 08:26:20;;;;;;;11.18;10.48;;;;;;;;;;4992093;28;20030;-52
2023/03/11 08:28:46;;;;;;;11.25;10.55;;;;;;;;;;4991672;28;20040;-51
2023/03/11 08:31:17;;;;;;;11.57;10.77;;;;;;;;;;4994476;28;20038;-51
2023/03/11 08:33:45;;;;;;;12.43;11.57;;;;;;;;;;4996942;28;20033;-50
2023/03/11 08:36:11;;;;;;;10.57;9.98;;;;;;;;;;4996412;28;20037;-51
2023/03/11 08:38:37;;;;;;;10.95;10.25;;;;;;;;;;4995387;28;20030;-49
2023/03/11 08:41:03;;;;;;;11.80;10.90;;;;;;;;;;4999515;28;20033;-52
2023/03/11 08:43:29;;;;;;;11.70;11.00;;;;;;;;;;4996282;28;20471;-50
2023/03/11 08:45:54;;;;;;;10.93;10.25;;;;;;;;;;4993537;28;20038;-52
2023/03/11 08:48:19;;;;;;;10.60;10.00;;;;;;;;;;4997491;28;20057;-52
2023/03/11 08:50:45;;;;;;;11.77;11.00;;;;;;;;;;4991690;28;20034;-50
2023/03/11 08:53:11;;;;;;;11.77;11.07;;;;;;;;;;4995435;28;20368;-53
2023/03/11 08:55:36;;;;;;;10.07;9.48;;;;;;;;;;4994714;28;20036;-53
2023/03/11 08:58:01;;;;;;;11.20;10.50;;;;;;;;;;4993827;28;20038;-53
2023/03/11 09:00:27;;;;;;;9.60;9.00;;;;;;;;;;4994435;28;20430;-53
2023/03/11 09:02:52;;;;;;;10.63;10.02;;;;;;;;;;4995778;28;20025;-53
2023/03/11 09:05:18;;;;;;;10.23;9.52;;;;;;;;;;4998139;28;20521;-51
2023/03/11 09:07:43;;;;;;;10.85;10.15;;;;;;;;;;4995478;28;20038;-52
2023/03/11 09:10:13;;;;;;;10.75;10.13;;;;;;;;;;4995642;28;20069;-52
2023/03/11 09:12:38;;;;;;;11.13;10.32;;;;;;;;;;4994347;28;20106;-53
2023/03/11 09:15:05;;;;;;;11.18;10.43;;;;;;;;;;4997497;28;20034;-50
2023/03/11 09:17:30;;;;;;;10.18;9.57;;;;;;;;;;4993554;28;20026;-53
2023/03/11 09:19:55;;;;;;;9.30;8.70;;;;;;;;;;4996492;28;20036;-52
2023/03/11 09:22:21;;;;;;;9.90;9.30;;;;;;;;;;4990915;28;20578;-53
2023/03/11 09:24:46;;;;;;;10.38;9.77;;;;;;;;;;4992732;28;20038;-53
2023/03/11 09:27:12;;;;;;;10.65;9.95;;;;;;;;;;4994047;28;20082;-54
2023/03/11 09:29:38;;;;;;;10.93;10.25;;;;;;;;;;4993215;28;20140;-51
2023/03/11 09:32:04;;;;;;;10.88;10.18;;;;;;;;;;4992537;28;20176;-53
2023/03/11 09:34:29;;;;;;;11.52;10.60;;;;;;;;;;4998416;28;20124;-53
2023/03/11 09:36:54;;;;;;;11.02;10.32;;;;;;;;;;4992446;28;20030;-53
2023/03/11 09:39:20;;;;;;;10.52;9.90;;;;;;;;;;5008529;28;20045;-54
2023/03/11 09:42:21;;;;;;;9.88;9.27;;;;;;;;;;4991739;28;20095;-52
2023/03/11 09:44:46;;;;;;;;;;;;;;;;;;5000340;28;20627;-51
2023/03/11 09:47:54;;;;;;;11.30;10.52;;;;;;;;;;4992898;28;19917;-50
2023/03/11 09:50:31;;;;;;;10.32;9.73;;;;;;;;;;4970353;28;20276;-52
2023/03/11 09:53:19;;;;;;;9.93;9.32;;;;;;;;;;4994729;28;20095;-51
2023/03/11 09:55:48;;;;;;;10.38;9.77;;;;;;;;;;4997398;28;20103;-49
2023/03/11 09:58:35;;;;;;;12.02;11.23;;;;;;;;;;4994631;28;20113;-51
2023/03/11 10:01:02;;;;;;;10.38;9.77;;;;;;;;;;4994131;28;20037;-49
2023/03/11 10:03:34;;;;;;;10.40;9.80;;;;;;;;;;4995229;28;20521;-51
2023/03/11 10:06:05;;;;;;;;;;;;;;;;;;4996742;28;20058;-53
2023/03/11 10:08:39;;;;;;;11.77;11.07;;;;;;;;;;5009592;28;20011;-51
2023/03/11 10:11:33;;;;;;;11.82;11.13;;;;;;;;;;4997343;28;20041;-50
2023/03/11 10:14:38;;;;;;;11.48;10.77;;;;;;;;;;4981920;28;20372;-49
2023/03/11 10:17:18;;;;;;;11.98;11.27;;;;;;;;;;4994904;28;20034;-51
2023/03/11 10:19:56;;;;;;;12.05;11.35;;;;;;;;;;4993778;28;20033;-52
2023/03/11 10:22:24;;;;;;;11.10;10.40;;;;;;;;;;4993614;28;20144;-51
2023/03/11 10:25:01;;;;;;;11.75;11.05;;;;;;;;;;4998488;28;20029;-52
2023/03/11 10:27:36;;;;;;;11.15;10.45;;;;;;;;;;4995833;28;20049;-50
2023/03/11 10:30:27;;;;;;;11.82;11.13;;;;;;;;;;4996969;28;20562;-51
2023/03/11 10:33:23;;;;;;;12.60;11.73;;;;;;;;;;4995439;28;20099;-52
2023/03/11 10:35:55;;;;;;;11.20;10.50;;;;;;;;;;4990860;28;20034;-52
2023/03/11 10:38:26;;;;;;;11.30;10.60;;;;;;;;;;4993278;28;20099;-53
2023/03/11 10:40:55;;;;;;;11.40;10.70;;;;;;;;;;4990621;28;20428;-53
2023/03/11 10:43:37;;;;;;;12.13;11.27;;;;;;;;;;4992824;28;20041;-53
2023/03/11 10:46:11;;;;;;;12.38;11.57;;;;;;;;;;4991231;28;20069;-54
2023/03/11 10:48:37;;;;;;;12.50;11.45;;;;;;;;;;4993760;28;20038;-53
2023/03/11 10:51:10;;;;;;;11.18;10.48;;;;;;;;;;4995593;28;20045;-51
2023/03/11 10:53:45;;;;;;;11.88;11.18;;;;;;;;;;4993665;28;20103;-53
2023/03/11 10:56:26;;;;;;;11.73;11.02;;;;;;;;;;4993183;28;20527;-52
2023/03/11 10:58:51;;;;;;;11.80;11.10;;;;;;;;;;4993811;28;20558;-52
2023/03/11 11:01:20;;;;;;;11.68;10.98;;;;;;;;;;4992638;28;20045;-51
2023/03/11 11:03:48;;;;;;;12.10;11.40;;;;;;;;;;4992708;28;20042;-49
2023/03/11 11:06:22;;;;;;;11.40;10.70;;;;;;;;;;4994914;28;20048;-50
2023/03/11 11:08:47;;;;;;;12.35;11.65;;;;;;;;;;4994201;28;20072;-49
2023/03/11 11:11:22;;;;;;;12.02;11.32;;;;;;;;;;4994507;28;20061;-50
2023/03/11 11:13:59;;;;;;;12.55;11.85;;;;;;;;;;4995091;28;20034;-49
2023/03/11 11:16:25;;;;;;;12.10;11.40;;;;;;;;;;4990956;28;20126;-52
2023/03/11 11:19:03;;;;;;;11.48;10.77;;;;;;;;;;4991942;28;20026;-50
2023/03/11 11:21:42;;;;;;;11.80;11.10;;;;;;;;;;4988883;28;20679;-50
2023/03/11 11:24:16;;;;;;;11.00;10.30;;;;;;;;;;4992526;28;20049;-52
2023/03/11 11:26:41;;;;;;;11.70;11.00;;;;;;;;;;4994613;28;20046;-52
2023/03/11 11:29:10;;;;;;;12.15;11.45;;;;;;;;;;5009285;28;20034;-52
2023/03/11 11:31:41;;;;;;;12.05;11.35;;;;;;;;;;4993658;28;20038;-51
2023/03/11 11:34:32;;;;;;;11.65;10.95;;;;;;;;;;4994429;28;20185;-52
2023/03/11 11:36:59;;;;;;;11.43;10.73;;;;;;;;;;4992053;28;20417;-49
2023/03/11 11:39:35;;;;;;;11.55;10.85;;;;;;;;;;4990467;28;20042;-56
2023/03/11 11:42:01;;;;;;;12.32;11.63;;;;;;;;;;4992646;28;20504;-56
2023/03/11 11:44:33;;;;;;;10.75;10.10;;;;;;;;;;4994920;28;20136;-56
2023/03/11 11:47:12;;;;;;;11.57;10.88;;;;;;;;;;4992325;28;20038;-56
2023/03/11 11:49:47;;;;;;;12.90;11.80;;;;;;;;;;4991927;28;20042;-56
2023/03/11 11:52:16;;;;;;;11.57;10.88;;;;;;;;;;4995670;28;20117;-57
2023/03/11 11:54:55;;;;;;;11.90;11.20;;;;;;;;;;4993642;28;20076;-56
2023/03/11 11:57:22;;;;;;;11.40;10.70;;;;;;;;;;4991896;28;20104;-56
2023/03/11 11:59:48;;;;;;;11.10;10.40;;;;;;;;;;4992952;28;20125;-57
2023/03/11 12:02:25;;;;;;;11.43;10.73;;;;;;;;;;4993636;28;20121;-57
2023/03/11 12:04:55;;;;;;;11.77;11.07;;;;;;;;;;4993628;28;20642;-57
2023/03/11 12:07:38;;;;;;;13.35;12.35;;;;;;;;;;4994621;28;20104;-56
2023/03/11 12:10:26;;;;;;;11.45;10.75;;;;;;;;;;4996285;28;20532;-55
2023/03/11 12:13:04;;;;;;;12.65;11.95;;;;;;;;;;4995701;28;20541;-56
2023/03/11 12:15:40;;;;;;;11.63;10.93;;;;;;;;;;4995278;28;20037;-56
2023/03/11 12:18:16;;;;;;;11.73;11.02;;;;;;;;;;4994753;28;20044;-56
2023/03/11 12:20:47;;;;;;;11.68;10.98;;;;;;;;;;4997555;28;20468;-56
2023/03/11 12:23:37;;;;;;;10.85;10.20;;;;;;;;;;4994551;28;20096;-56
2023/03/11 12:26:19;;;;;;;11.43;10.73;;;;;;;;;;4997824;28;20165;-56
2023/03/11 12:28:52;;;;;;;12.45;11.75;;;;;;;;;;4991894;28;20036;-56
2023/03/11 12:31:18;;;;;;;11.93;11.23;;;;;;;;;;4997412;28;20320;-59
2023/03/11 12:33:50;;;;;;;11.90;11.20;;;;;;;;;;4994856;28;20026;-59
2023/03/11 12:36:25;;;;;;;13.45;12.55;;;;;;;;;;4994498;28;20479;-58
2023/03/11 12:38:52;;;;;;;12.50;11.60;;;;;;;;;;4993171;28;20034;-57
2023/03/11 12:41:35;;;;;;;12.23;11.52;;;;;;;;;;4995241;28;20056;-57
2023/03/11 12:44:25;;;;;;;12.02;11.32;;;;;;;;;;4996156;28;20038;-59
2023/03/11 12:46:53;;;;;;;12.10;11.40;;;;;;;;;;4991749;28;20053;-58
2023/03/11 12:49:23;;;;;;;11.27;10.57;;;;;;;;;;5008483;28;20038;-59
2023/03/11 12:52:07;;;;;;;12.35;11.65;;;;;;;;;;4993199;28;20096;-59
2023/03/11 12:54:38;;;;;;;12.23;11.48;;;;;;;;;;4996868;28;20026;-57
2023/03/11 12:57:16;;;;;;;11.73;11.02;;;;;;;;;;4996262;28;20026;-56
2023/03/11 13:00:21;;;;;;;13.60;12.60;;;;;;;;;;4996170;28;20384;-58
2023/03/11 13:03:12;;;;;;;11.30;10.60;;;;;;;;;;4992389;28;20049;-57
2023/03/11 13:05:59;;;;;;;11.37;10.67;;;;;;;;;;4995362;28;20034;-59
2023/03/11 13:08:27;;;;;;;11.65;10.95;;;;;;;;;;4998267;28;20031;-56
2023/03/11 13:10:56;;;;;;;11.15;10.45;;;;;;;;;;4996111;28;20041;-57
2023/03/11 13:13:30;;;;;;;12.07;11.38;;;;;;;;;;5002800;28;20384;-56
2023/03/11 13:15:56;;;;;;;12.25;11.55;;;;;;;;;;4994056;28;20104;-58
2023/03/11 13:18:27;;;;;;;11.90;11.13;;;;;;;;;;4993908;28;20036;-56
2023/03/11 13:21:03;;;;;;;11.88;11.07;;;;;;;;;;4995636;28;20216;-58
2023/03/11 13:23:39;;;;;;;10.75;10.15;;;;;;;;;;4995854;28;20034;-58
2023/03/11 13:26:26;;;;;;;11.15;10.45;;;;;;;;;;4997898;28;20054;-57
2023/03/11 13:29:10;;;;;;;11.48;10.77;;;;;;;;;;5012549;28;20471;-59
2023/03/11 13:31:43;;;;;;;11.75;11.05;;;;;;;;;;4993354;28;20499;-57
2023/03/11 13:34:14;;;;;;;10.60;9.98;;;;;;;;;;4995512;28;20096;-57
2023/03/11 13:36:48;;;;;;;11.52;10.82;;;;;;;;;;4994061;28;20030;-57
2023/03/11 13:39:41;;;;;;;10.70;10.10;;;;;;;;;;4993004;28;20399;-55
2023/03/11 13:42:22;;;;;;;11.98;11.27;;;;;;;;;;4994373;28;20074;-56
2023/03/11 13:44:48;;;;;;;11.98;11.27;;;;;;;;;;4992022;28;20115;-57
2023/03/11 13:47:16;;;;;;;12.07;11.38;;;;;;;;;;4995647;28;20092;-57
2023/03/11 13:49:50;;;;;;;10.98;10.27;;;;;;;;;;4994231;28;20045;-55
2023/03/11 13:52:25;;;;;;;11.27;10.57;;;;;;;;;;4997771;28;20224;-55
2023/03/11 13:55:18;;;;;;;11.52;10.82;;;;;;;;;;4994726;28;20078;-56
2023/03/11 13:57:52;;;;;;;11.55;10.85;;;;;;;;;;4984703;28;20066;-57
2023/03/11 14:00:29;;;;;;;11.30;10.60;;;;;;;;;;4996711;28;20085;-56
2023/03/11 14:03:00;;;;;;;11.10;10.40;;;;;;;;;;4996857;28;20030;-56
2023/03/11 14:05:31;;;;;;;11.73;11.02;;;;;;;;;;4998341;28;20038;-56
2023/03/11 14:08:25;;;;;;;11.73;11.02;;;;;;;;;;4992863;28;20053;-56
2023/03/11 14:11:14;;;;;;;12.10;11.40;;;;;;;;;;4993037;28;20655;-56
2023/03/11 14:13:46;;;;;;;11.77;11.05;;;;;;;;;;4992956;28;20045;-56
2023/03/11 14:16:20;;;;;;;12.07;11.38;;;;;;;;;;4991872;28;20030;-58
2023/03/11 14:18:47;;;;;;;11.52;10.82;;;;;;;;;;4992675;28;20491;-56
2023/03/11 14:21:16;;;;;;;11.07;10.38;;;;;;;;;;4993982;28;20160;-56
2023/03/11 14:23:45;;;;;;;11.38;10.68;;;;;;;;;;4994549;28;20057;-56
2023/03/11 14:26:19;;;;;;;11.27;10.57;;;;;;;;;;4995035;28;20072;-56
2023/03/11 14:28:48;;;;;;;12.07;11.32;;;;;;;;;;5009535;28;20027;-56
2023/03/11 14:31:39;;;;;;;11.40;10.70;;;;;;;;;;4994157;28;20042;-56
2023/03/11 14:34:17;;;;;;;11.93;11.23;;;;;;;;;;4995765;28;20076;-57
2023/03/11 14:36:43;;;;;;;11.13;10.43;;;;;;;;;;4991193;28;20396;-57
2023/03/11 14:39:27;;;;;;;12.88;12.07;;;;;;;;;;4992880;28;20204;-58
2023/03/11 14:41:57;;;;;;;13.02;12.25;;;;;;;;;;4991951;28;20105;-57